Terminal Aerodrome Forecast
Issued by NWS Louisville, KY

Home | Current Version | Previous Version | Text Only | Print | Product List | Glossary On
Versions: 1 2 3 4 5 6 7 8 9 10 11 12 13 14 15 16 17 18
000
FTUS43 KLMK 202300
TAFSDF
TAF
KSDF 202320Z 2100/2206 02008KT P6SM -SHRA SCT040 BKN080
     FM210500 36007KT P6SM SCT025 BKN040
      TEMPO 2105/2108 BKN025
     FM210800 35007KT P6SM BKN015
     FM211700 33008KT P6SM BKN021
     FM212100 33008KT P6SM BKN035=

USA.gov is the U.S. government's official web portal to all federal, state and local government web resources and services.